sensor_id;sensor_type;location;lat;lon;timestamp;temperature;humidity
6662;DHT22;3367;48.714;8.994;2023-07-02T00:00:13;16.50;1.00
6662;DHT22;3367;48.714;8.994;2023-07-02T00:02:59;16.40;1.00
6662;DHT22;3367;48.714;8.994;2023-07-02T00:05:27;16.40;1.00
6662;DHT22;3367;48.714;8.994;2023-07-02T00:07:56;16.40;1.00
6662;DHT22;3367;48.714;8.994;2023-07-02T00:10:23;16.30;1.00
6662;DHT22;3367;48.714;8.994;2023-07-02T00:12:52;16.30;1.00
6662;DHT22;3367;48.714;8.994;2023-07-02T00:15:22;16.20;1.00
6662;DHT22;3367;48.714;8.994;2023-07-02T00:17:48;16.20;1.00
6662;DHT22;3367;48.714;8.994;2023-07-02T00:20:15;16.20;1.00
6662;DHT22;3367;48.714;8.994;2023-07-02T00:22:48;16.20;1.00
6662;DHT22;3367;48.714;8.994;2023-07-02T00:25:15;16.20;1.00
6662;DHT22;3367;48.714;8.994;2023-07-02T00:27:44;16.20;1.00
6662;DHT22;3367;48.714;8.994;2023-07-02T00:30:14;16.20;1.00
6662;DHT22;3367;48.714;8.994;2023-07-02T00:32:41;16.20;1.00
6662;DHT22;3367;48.714;8.994;2023-07-02T00:35:08;16.20;1.00
6662;DHT22;3367;48.714;8.994;2023-07-02T00:37:35;16.20;1.00
6662;DHT22;3367;48.714;8.994;2023-07-02T00:40:08;16.20;1.00
6662;DHT22;3367;48.714;8.994;2023-07-02T00:42:38;16.20;1.00
6662;DHT22;3367;48.714;8.994;2023-07-02T00:45:06;16.20;99.90
6662;DHT22;3367;48.714;8.994;2023-07-02T00:47:34;16.20;99.90
6662;DHT22;3367;48.714;8.994;2023-07-02T00:50:01;16.20;99.90
6662;DHT22;3367;48.714;8.994;2023-07-02T00:52:28;16.30;99.90
6662;DHT22;3367;48.714;8.994;2023-07-02T00:55:01;16.20;99.90
6662;DHT22;3367;48.714;8.994;2023-07-02T00:57:29;16.20;1.00
6662;DHT22;3367;48.714;8.994;2023-07-02T00:59:56;16.30;1.00
6662;DHT22;3367;48.714;8.994;2023-07-02T01:02:23;16.30;1.00
6662;DHT22;3367;48.714;8.994;2023-07-02T01:04:57;16.30;1.00
6662;DHT22;3367;48.714;8.994;2023-07-02T01:07:25;16.30;99.90
6662;DHT22;3367;48.714;8.994;2023-07-02T01:09:52;16.30;99.90
6662;DHT22;3367;48.714;8.994;2023-07-02T01:12:25;16.20;49.00
6662;DHT22;3367;48.714;8.994;2023-07-02T01:15:07;16.20;90.90
6662;DHT22;3367;48.714;8.994;2023-07-02T01:17:35;16.20;8.00
6662;DHT22;3367;48.714;8.994;2023-07-02T01:20:10;16.10;1.00
6662;DHT22;3367;48.714;8.994;2023-07-02T01:22:43;16.10;15.40
6662;DHT22;3367;48.714;8.994;2023-07-02T01:25:13;16.10;40.30
6662;DHT22;3367;48.714;8.994;2023-07-02T01:27:41;16.10;99.90
6662;DHT22;3367;48.714;8.994;2023-07-02T01:30:14;16.00;1.00
6662;DHT22;3367;48.714;8.994;2023-07-02T01:32:54;16.00;31.60
6662;DHT22;3367;48.714;8.994;2023-07-02T01:35:22;15.90;99.90
6662;DHT22;3367;48.714;8.994;2023-07-02T01:37:54;15.80;76.20
6662;DHT22;3367;48.714;8.994;2023-07-02T01:40:30;15.80;97.70
6662;DHT22;3367;48.714;8.994;2023-07-02T01:43:00;15.70;99.90
6662;DHT22;3367;48.714;8.994;2023-07-02T01:45:32;15.70;99.90
6662;DHT22;3367;48.714;8.994;2023-07-02T01:48:02;15.60;99.90
6662;DHT22;3367;48.714;8.994;2023-07-02T01:50:30;15.60;99.90
6662;DHT22;3367;48.714;8.994;2023-07-02T01:52:57;15.60;99.90
6662;DHT22;3367;48.714;8.994;2023-07-02T01:55:23;15.50;99.90
6662;DHT22;3367;48.714;8.994;2023-07-02T01:57:50;15.60;99.90
6662;DHT22;3367;48.714;8.994;2023-07-02T02:00:17;15.60;99.90
6662;DHT22;3367;48.714;8.994;2023-07-02T02:02:50;15.60;99.90
6662;DHT22;3367;48.714;8.994;2023-07-02T02:05:17;15.60;99.90
6662;DHT22;3367;48.714;8.994;2023-07-02T02:07:45;15.70;99.90
6662;DHT22;3367;48.714;8.994;2023-07-02T02:10:15;15.70;4.80
6662;DHT22;3367;48.714;8.994;2023-07-02T02:12:52;15.70;14.20
6662;DHT22;3367;48.714;8.994;2023-07-02T02:15:18;15.80;1.00
6662;DHT22;3367;48.714;8.994;2023-07-02T02:17:48;15.80;1.00
6662;DHT22;3367;48.714;8.994;2023-07-02T02:20:15;15.80;1.00
6662;DHT22;3367;48.714;8.994;2023-07-02T02:22:46;15.90;1.00
6662;DHT22;3367;48.714;8.994;2023-07-02T02:25:15;15.90;1.00
6662;DHT22;3367;48.714;8.994;2023-07-02T02:27:45;15.90;1.00
6662;DHT22;3367;48.714;8.994;2023-07-02T02:30:15;16.00;1.00
6662;DHT22;3367;48.714;8.994;2023-07-02T02:33:03;16.00;1.00
6662;DHT22;3367;48.714;8.994;2023-07-02T02:35:33;16.00;1.00
6662;DHT22;3367;48.714;8.994;2023-07-02T02:38:02;16.00;1.00
6662;DHT22;3367;48.714;8.994;2023-07-02T02:40:32;16.00;1.00
6662;DHT22;3367;48.714;8.994;2023-07-02T02:43:00;16.00;1.00
6662;DHT22;3367;48.714;8.994;2023-07-02T02:45:29;16.00;1.00
6662;DHT22;3367;48.714;8.994;2023-07-02T02:47:56;16.00;1.00
6662;DHT22;3367;48.714;8.994;2023-07-02T02:50:37;16.00;9.20
6662;DHT22;3367;48.714;8.994;2023-07-02T02:53:07;16.00;1.00
6662;DHT22;3367;48.714;8.994;2023-07-02T02:55:46;16.00;1.00
6662;DHT22;3367;48.714;8.994;2023-07-02T02:58:13;16.00;71.50
6662;DHT22;3367;48.714;8.994;2023-07-02T03:00:40;15.90;1.00
6662;DHT22;3367;48.714;8.994;2023-07-02T03:03:13;15.90;93.10
6662;DHT22;3367;48.714;8.994;2023-07-02T03:05:41;15.90;99.90
6662;DHT22;3367;48.714;8.994;2023-07-02T03:08:13;15.80;80.80
6662;DHT22;3367;48.714;8.994;2023-07-02T03:10:43;15.70;99.90
6662;DHT22;3367;48.714;8.994;2023-07-02T03:13:10;15.70;99.90
6662;DHT22;3367;48.714;8.994;2023-07-02T03:15:36;15.40;1.00
6662;DHT22;3367;48.714;8.994;2023-07-02T03:18:08;15.50;1.00
6662;DHT22;3367;48.714;8.994;2023-07-02T03:20:35;15.40;1.00
6662;DHT22;3367;48.714;8.994;2023-07-02T03:23:05;15.30;1.00
6662;DHT22;3367;48.714;8.994;2023-07-02T03:25:40;15.20;1.00
6662;DHT22;3367;48.714;8.994;2023-07-02T03:28:09;15.10;1.00
6662;DHT22;3367;48.714;8.994;2023-07-02T03:30:39;15.10;1.00
6662;DHT22;3367;48.714;8.994;2023-07-02T03:33:07;15.10;1.00
6662;DHT22;3367;48.714;8.994;2023-07-02T03:35:34;15.10;1.00
6662;DHT22;3367;48.714;8.994;2023-07-02T03:38:01;15.00;1.00
6662;DHT22;3367;48.714;8.994;2023-07-02T03:40:27;14.90;1.00
6662;DHT22;3367;48.714;8.994;2023-07-02T03:43:03;15.00;80.50
6662;DHT22;3367;48.714;8.994;2023-07-02T03:45:30;14.90;99.90
6662;DHT22;3367;48.714;8.994;2023-07-02T03:47:59;14.90;99.90
6662;DHT22;3367;48.714;8.994;2023-07-02T03:50:26;14.90;99.90
6662;DHT22;3367;48.714;8.994;2023-07-02T03:52:58;15.00;99.90
6662;DHT22;3367;48.714;8.994;2023-07-02T03:55:25;14.90;99.90
6662;DHT22;3367;48.714;8.994;2023-07-02T03:57:52;14.90;99.90
6662;DHT22;3367;48.714;8.994;2023-07-02T04:00:20;15.00;99.90
6662;DHT22;3367;48.714;8.994;2023-07-02T04:02:47;15.00;99.90
6662;DHT22;3367;48.714;8.994;2023-07-02T04:05:13;15.00;99.90
6662;DHT22;3367;48.714;8.994;2023-07-02T04:07:40;15.00;99.90
6662;DHT22;3367;48.714;8.994;2023-07-02T04:10:08;15.00;99.90
6662;DHT22;3367;48.714;8.994;2023-07-02T04:12:34;15.00;99.90
6662;DHT22;3367;48.714;8.994;2023-07-02T04:15:01;15.00;99.90
6662;DHT22;3367;48.714;8.994;2023-07-02T04:17:30;15.00;99.90
6662;DHT22;3367;48.714;8.994;2023-07-02T04:19:57;15.10;99.90
6662;DHT22;3367;48.714;8.994;2023-07-02T04:22:26;15.00;99.60
6662;DHT22;3367;48.714;8.994;2023-07-02T04:24:52;15.00;88.20
6662;DHT22;3367;48.714;8.994;2023-07-02T04:27:19;15.00;27.50
6662;DHT22;3367;48.714;8.994;2023-07-02T04:29:46;15.10;99.90
6662;DHT22;3367;48.714;8.994;2023-07-02T04:32:13;15.10;94.60
6662;DHT22;3367;48.714;8.994;2023-07-02T04:34:41;15.10;1.00
6662;DHT22;3367;48.714;8.994;2023-07-02T04:37:09;15.10;1.00
6662;DHT22;3367;48.714;8.994;2023-07-02T04:39:36;15.20;99.90
6662;DHT22;3367;48.714;8.994;2023-07-02T04:42:03;15.20;99.90
6662;DHT22;3367;48.714;8.994;2023-07-02T04:44:30;15.20;58.40
6662;DHT22;3367;48.714;8.994;2023-07-02T04:46:57;15.30;99.80
6662;DHT22;3367;48.714;8.994;2023-07-02T04:49:24;15.40;99.30
6662;DHT22;3367;48.714;8.994;2023-07-02T04:51:53;15.60;1.00
6662;DHT22;3367;48.714;8.994;2023-07-02T04:54:20;15.70;1.00
6662;DHT22;3367;48.714;8.994;2023-07-02T04:56:47;15.80;1.00
6662;DHT22;3367;48.714;8.994;2023-07-02T04:59:14;15.80;1.00
6662;DHT22;3367;48.714;8.994;2023-07-02T05:01:41;15.80;1.00
6662;DHT22;3367;48.714;8.994;2023-07-02T05:04:10;15.80;1.00
6662;DHT22;3367;48.714;8.994;2023-07-02T05:06:37;15.80;1.00
6662;DHT22;3367;48.714;8.994;2023-07-02T05:09:05;15.90;1.00
6662;DHT22;3367;48.714;8.994;2023-07-02T05:11:32;16.00;1.00
6662;DHT22;3367;48.714;8.994;2023-07-02T05:13:58;16.00;1.00
6662;DHT22;3367;48.714;8.994;2023-07-02T05:16:25;16.10;99.90
6662;DHT22;3367;48.714;8.994;2023-07-02T05:18:52;16.20;99.90
6662;DHT22;3367;48.714;8.994;2023-07-02T05:21:19;16.40;1.00
6662;DHT22;3367;48.714;8.994;2023-07-02T05:23:46;16.60;99.90
6662;DHT22;3367;48.714;8.994;2023-07-02T05:26:14;16.70;96.60
6662;DHT22;3367;48.714;8.994;2023-07-02T05:28:41;17.10;1.00
6662;DHT22;3367;48.714;8.994;2023-07-02T05:31:09;17.50;1.00
6662;DHT22;3367;48.714;8.994;2023-07-02T05:33:36;17.90;1.00
6662;DHT22;3367;48.714;8.994;2023-07-02T05:36:03;18.60;99.90
6662;DHT22;3367;48.714;8.994;2023-07-02T05:38:29;19.00;1.00
6662;DHT22;3367;48.714;8.994;2023-07-02T05:40:56;19.30;1.00
6662;DHT22;3367;48.714;8.994;2023-07-02T05:43:24;19.60;1.00
6662;DHT22;3367;48.714;8.994;2023-07-02T05:45:51;19.90;1.00
6662;DHT22;3367;48.714;8.994;2023-07-02T05:48:18;20.00;1.00
6662;DHT22;3367;48.714;8.994;2023-07-02T05:50:45;20.00;1.00
6662;DHT22;3367;48.714;8.994;2023-07-02T05:53:11;20.20;1.00
6662;DHT22;3367;48.714;8.994;2023-07-02T05:55:38;20.40;1.00
6662;DHT22;3367;48.714;8.994;2023-07-02T05:58:05;20.70;1.00
6662;DHT22;3367;48.714;8.994;2023-07-02T06:00:34;20.80;1.00
6662;DHT22;3367;48.714;8.994;2023-07-02T06:03:00;20.80;1.00
6662;DHT22;3367;48.714;8.994;2023-07-02T06:05:27;21.10;1.00
6662;DHT22;3367;48.714;8.994;2023-07-02T06:07:55;21.30;1.00
6662;DHT22;3367;48.714;8.994;2023-07-02T06:10:21;21.30;1.00
6662;DHT22;3367;48.714;8.994;2023-07-02T06:12:48;21.30;1.00
6662;DHT22;3367;48.714;8.994;2023-07-02T06:15:15;21.50;1.00
6662;DHT22;3367;48.714;8.994;2023-07-02T06:17:43;21.50;1.00
6662;DHT22;3367;48.714;8.994;2023-07-02T06:20:10;21.10;1.00
6662;DHT22;3367;48.714;8.994;2023-07-02T06:22:37;20.30;1.00
6662;DHT22;3367;48.714;8.994;2023-07-02T06:25:06;19.90;1.00
6662;DHT22;3367;48.714;8.994;2023-07-02T06:27:32;19.40;1.00
6662;DHT22;3367;48.714;8.994;2023-07-02T06:29:59;19.20;1.00
6662;DHT22;3367;48.714;8.994;2023-07-02T06:32:26;19.00;1.00
6662;DHT22;3367;48.714;8.994;2023-07-02T06:34:54;18.80;1.00
6662;DHT22;3367;48.714;8.994;2023-07-02T06:37:20;18.60;1.00
6662;DHT22;3367;48.714;8.994;2023-07-02T06:39:47;18.40;1.00
6662;DHT22;3367;48.714;8.994;2023-07-02T06:42:14;18.40;1.00
6662;DHT22;3367;48.714;8.994;2023-07-02T06:44:41;18.30;1.00
6662;DHT22;3367;48.714;8.994;2023-07-02T06:47:08;18.10;1.00
6662;DHT22;3367;48.714;8.994;2023-07-02T06:49:34;18.10;1.00
6662;DHT22;3367;48.714;8.994;2023-07-02T06:52:03;18.20;1.00
6662;DHT22;3367;48.714;8.994;2023-07-02T06:54:29;18.10;1.00
6662;DHT22;3367;48.714;8.994;2023-07-02T06:56:56;18.10;1.00
6662;DHT22;3367;48.714;8.994;2023-07-02T06:59:23;18.10;1.00
6662;DHT22;3367;48.714;8.994;2023-07-02T07:01:50;18.20;1.00
6662;DHT22;3367;48.714;8.994;2023-07-02T07:04:17;18.30;1.00
6662;DHT22;3367;48.714;8.994;2023-07-02T07:06:44;18.50;1.00
6662;DHT22;3367;48.714;8.994;2023-07-02T07:09:12;18.60;1.00
6662;DHT22;3367;48.714;8.994;2023-07-02T07:11:38;18.70;1.00
6662;DHT22;3367;48.714;8.994;2023-07-02T07:14:05;18.70;1.00
6662;DHT22;3367;48.714;8.994;2023-07-02T07:16:32;19.00;1.00
6662;DHT22;3367;48.714;8.994;2023-07-02T07:18:58;19.30;1.00
6662;DHT22;3367;48.714;8.994;2023-07-02T07:21:25;19.60;1.00
6662;DHT22;3367;48.714;8.994;2023-07-02T07:23:52;19.50;1.00
6662;DHT22;3367;48.714;8.994;2023-07-02T07:26:20;19.40;1.00
6662;DHT22;3367;48.714;8.994;2023-07-02T07:28:47;19.60;1.00
6662;DHT22;3367;48.714;8.994;2023-07-02T07:31:15;19.50;1.00
6662;DHT22;3367;48.714;8.994;2023-07-02T07:33:41;19.70;1.00
6662;DHT22;3367;48.714;8.994;2023-07-02T07:36:09;19.80;1.00
6662;DHT22;3367;48.714;8.994;2023-07-02T07:38:35;19.70;1.00
6662;DHT22;3367;48.714;8.994;2023-07-02T07:41:02;19.80;1.00
6662;DHT22;3367;48.714;8.994;2023-07-02T07:43:30;20.00;1.00
6662;DHT22;3367;48.714;8.994;2023-07-02T07:45:57;20.00;1.00
6662;DHT22;3367;48.714;8.994;2023-07-02T07:48:24;19.90;1.00
6662;DHT22;3367;48.714;8.994;2023-07-02T07:50:52;20.00;1.00
6662;DHT22;3367;48.714;8.994;2023-07-02T07:53:18;20.00;1.00
6662;DHT22;3367;48.714;8.994;2023-07-02T07:55:45;20.10;1.00
6662;DHT22;3367;48.714;8.994;2023-07-02T07:58:12;20.20;1.00
6662;DHT22;3367;48.714;8.994;2023-07-02T08:00:40;20.70;1.00
6662;DHT22;3367;48.714;8.994;2023-07-02T08:03:06;21.10;1.00
6662;DHT22;3367;48.714;8.994;2023-07-02T08:05:33;20.90;1.00
6662;DHT22;3367;48.714;8.994;2023-07-02T08:08:00;21.00;1.00
6662;DHT22;3367;48.714;8.994;2023-07-02T08:10:27;21.00;1.00
6662;DHT22;3367;48.714;8.994;2023-07-02T08:12:54;21.40;1.00
6662;DHT22;3367;48.714;8.994;2023-07-02T08:15:21;21.40;1.00
6662;DHT22;3367;48.714;8.994;2023-07-02T08:17:49;21.80;1.00
6662;DHT22;3367;48.714;8.994;2023-07-02T08:20:19;21.80;1.00
6662;DHT22;3367;48.714;8.994;2023-07-02T08:22:46;21.70;1.00
6662;DHT22;3367;48.714;8.994;2023-07-02T08:25:13;22.10;1.00
6662;DHT22;3367;48.714;8.994;2023-07-02T08:27:39;22.50;1.00
6662;DHT22;3367;48.714;8.994;2023-07-02T08:30:07;22.90;1.00
6662;DHT22;3367;48.714;8.994;2023-07-02T08:32:34;22.90;1.00
6662;DHT22;3367;48.714;8.994;2023-07-02T08:35:02;22.70;1.00
6662;DHT22;3367;48.714;8.994;2023-07-02T08:37:29;22.40;1.00
6662;DHT22;3367;48.714;8.994;2023-07-02T08:39:56;22.20;1.00
6662;DHT22;3367;48.714;8.994;2023-07-02T08:42:23;22.30;1.00
6662;DHT22;3367;48.714;8.994;2023-07-02T08:44:54;22.30;1.00
6662;DHT22;3367;48.714;8.994;2023-07-02T08:47:21;22.50;1.00
6662;DHT22;3367;48.714;8.994;2023-07-02T08:49:48;22.60;1.00
6662;DHT22;3367;48.714;8.994;2023-07-02T08:52:16;22.50;1.00
6662;DHT22;3367;48.714;8.994;2023-07-02T08:54:43;22.20;1.00
6662;DHT22;3367;48.714;8.994;2023-07-02T08:57:09;22.30;1.00
6662;DHT22;3367;48.714;8.994;2023-07-02T08:59:36;22.00;1.00
6662;DHT22;3367;48.714;8.994;2023-07-02T09:02:03;21.90;1.00
6662;DHT22;3367;48.714;8.994;2023-07-02T09:04:30;22.10;1.00
6662;DHT22;3367;48.714;8.994;2023-07-02T09:07:04;22.20;1.00
6662;DHT22;3367;48.714;8.994;2023-07-02T09:09:43;22.20;1.00
6662;DHT22;3367;48.714;8.994;2023-07-02T09:12:21;22.00;1.00
6662;DHT22;3367;48.714;8.994;2023-07-02T09:14:54;21.90;1.00
6662;DHT22;3367;48.714;8.994;2023-07-02T09:17:21;22.10;1.00
6662;DHT22;3367;48.714;8.994;2023-07-02T09:19:50;21.90;1.00
6662;DHT22;3367;48.714;8.994;2023-07-02T09:22:17;22.00;1.00
6662;DHT22;3367;48.714;8.994;2023-07-02T09:24:52;22.10;1.00
6662;DHT22;3367;48.714;8.994;2023-07-02T09:27:20;22.10;1.00
6662;DHT22;3367;48.714;8.994;2023-07-02T09:29:50;22.20;1.00
6662;DHT22;3367;48.714;8.994;2023-07-02T09:32:24;22.40;1.00
6662;DHT22;3367;48.714;8.994;2023-07-02T09:34:53;22.50;1.00
6662;DHT22;3367;48.714;8.994;2023-07-02T09:37:20;22.30;1.00
6662;DHT22;3367;48.714;8.994;2023-07-02T09:39:50;22.20;1.00
6662;DHT22;3367;48.714;8.994;2023-07-02T09:42:19;22.00;1.00
6662;DHT22;3367;48.714;8.994;2023-07-02T09:44:46;22.00;1.00
6662;DHT22;3367;48.714;8.994;2023-07-02T09:47:14;22.30;1.00
6662;DHT22;3367;48.714;8.994;2023-07-02T09:49:47;22.60;1.00
6662;DHT22;3367;48.714;8.994;2023-07-02T09:52:16;22.80;1.00
6662;DHT22;3367;48.714;8.994;2023-07-02T09:54:44;22.60;1.00
6662;DHT22;3367;48.714;8.994;2023-07-02T09:57:11;22.80;1.00
6662;DHT22;3367;48.714;8.994;2023-07-02T09:59:40;22.50;1.00
6662;DHT22;3367;48.714;8.994;2023-07-02T10:02:08;22.50;1.00
6662;DHT22;3367;48.714;8.994;2023-07-02T10:04:42;22.30;1.00
6662;DHT22;3367;48.714;8.994;2023-07-02T10:07:09;22.60;1.00
6662;DHT22;3367;48.714;8.994;2023-07-02T10:09:37;22.70;1.00
6662;DHT22;3367;48.714;8.994;2023-07-02T10:12:18;22.60;1.00
6662;DHT22;3367;48.714;8.994;2023-07-02T10:14:47;23.00;1.00
6662;DHT22;3367;48.714;8.994;2023-07-02T10:17:24;22.70;1.00
6662;DHT22;3367;48.714;8.994;2023-07-02T10:19:53;22.90;1.00
6662;DHT22;3367;48.714;8.994;2023-07-02T10:22:19;23.20;1.00
6662;DHT22;3367;48.714;8.994;2023-07-02T10:24:54;23.30;1.00
6662;DHT22;3367;48.714;8.994;2023-07-02T10:27:33;23.20;1.00
6662;DHT22;3367;48.714;8.994;2023-07-02T10:30:03;23.40;1.00
6662;DHT22;3367;48.714;8.994;2023-07-02T10:32:32;23.50;1.00
6662;DHT22;3367;48.714;8.994;2023-07-02T10:34:59;23.80;1.00
6662;DHT22;3367;48.714;8.994;2023-07-02T10:37:35;24.30;1.00
6662;DHT22;3367;48.714;8.994;2023-07-02T10:40:03;24.30;1.00
6662;DHT22;3367;48.714;8.994;2023-07-02T10:42:31;23.80;1.00
6662;DHT22;3367;48.714;8.994;2023-07-02T10:44:58;23.30;1.00
6662;DHT22;3367;48.714;8.994;2023-07-02T10:47:28;23.00;1.00
6662;DHT22;3367;48.714;8.994;2023-07-02T10:49:55;23.10;1.00
6662;DHT22;3367;48.714;8.994;2023-07-02T10:52:22;22.90;1.00
6662;DHT22;3367;48.714;8.994;2023-07-02T10:54:48;22.90;1.00
6662;DHT22;3367;48.714;8.994;2023-07-02T10:57:17;23.00;1.00
6662;DHT22;3367;48.714;8.994;2023-07-02T10:59:45;23.00;1.00
6662;DHT22;3367;48.714;8.994;2023-07-02T11:15:49;23.50;1.00
6662;DHT22;3367;48.714;8.994;2023-07-02T11:18:17;23.60;1.00
6662;DHT22;3367;48.714;8.994;2023-07-02T11:20:52;23.90;1.00
6662;DHT22;3367;48.714;8.994;2023-07-02T11:23:24;24.00;1.00
6662;DHT22;3367;48.714;8.994;2023-07-02T11:25:55;23.90;1.00
6662;DHT22;3367;48.714;8.994;2023-07-02T11:28:27;23.90;1.00
6662;DHT22;3367;48.714;8.994;2023-07-02T11:30:55;23.90;1.00
6662;DHT22;3367;48.714;8.994;2023-07-02T11:33:39;23.90;1.00
6662;DHT22;3367;48.714;8.994;2023-07-02T11:36:19;24.20;1.00
6662;DHT22;3367;48.714;8.994;2023-07-02T11:38:46;24.50;1.00
6662;DHT22;3367;48.714;8.994;2023-07-02T11:41:13;24.60;1.00
6662;DHT22;3367;48.714;8.994;2023-07-02T11:43:40;24.70;1.00
6662;DHT22;3367;48.714;8.994;2023-07-02T11:46:08;24.50;1.00
6662;DHT22;3367;48.714;8.994;2023-07-02T11:48:35;24.50;1.00
6662;DHT22;3367;48.714;8.994;2023-07-02T11:51:02;24.30;1.00
6662;DHT22;3367;48.714;8.994;2023-07-02T11:53:28;24.10;1.00
6662;DHT22;3367;48.714;8.994;2023-07-02T11:55:57;23.70;1.00
6662;DHT22;3367;48.714;8.994;2023-07-02T11:58:24;23.80;1.00
6662;DHT22;3367;48.714;8.994;2023-07-02T12:00:53;23.70;1.00
6662;DHT22;3367;48.714;8.994;2023-07-02T12:03:24;23.60;1.00
6662;DHT22;3367;48.714;8.994;2023-07-02T12:05:53;23.50;1.00
6662;DHT22;3367;48.714;8.994;2023-07-02T12:08:20;23.60;1.00
6662;DHT22;3367;48.714;8.994;2023-07-02T12:10:55;23.70;1.00
6662;DHT22;3367;48.714;8.994;2023-07-02T12:13:25;23.90;1.00
6662;DHT22;3367;48.714;8.994;2023-07-02T12:15:52;24.10;1.00
6662;DHT22;3367;48.714;8.994;2023-07-02T12:18:23;24.20;1.00
6662;DHT22;3367;48.714;8.994;2023-07-02T12:20:55;24.20;1.00
6662;DHT22;3367;48.714;8.994;2023-07-02T12:23:25;24.00;1.00
6662;DHT22;3367;48.714;8.994;2023-07-02T12:25:51;24.20;1.00
6662;DHT22;3367;48.714;8.994;2023-07-02T12:28:18;24.40;1.00
6662;DHT22;3367;48.714;8.994;2023-07-02T12:30:47;24.40;1.00
6662;DHT22;3367;48.714;8.994;2023-07-02T12:33:17;24.20;1.00
6662;DHT22;3367;48.714;8.994;2023-07-02T12:35:57;24.00;1.00
6662;DHT22;3367;48.714;8.994;2023-07-02T12:38:30;23.80;1.00
6662;DHT22;3367;48.714;8.994;2023-07-02T12:40:57;23.60;1.00
6662;DHT22;3367;48.714;8.994;2023-07-02T12:43:26;23.60;1.00
6662;DHT22;3367;48.714;8.994;2023-07-02T12:45:53;23.90;1.00
6662;DHT22;3367;48.714;8.994;2023-07-02T12:48:23;24.20;1.00
6662;DHT22;3367;48.714;8.994;2023-07-02T12:50:58;24.50;1.00
6662;DHT22;3367;48.714;8.994;2023-07-02T12:53:26;24.60;1.00
6662;DHT22;3367;48.714;8.994;2023-07-02T12:55:55;24.60;1.00
6662;DHT22;3367;48.714;8.994;2023-07-02T12:58:25;24.20;1.00
6662;DHT22;3367;48.714;8.994;2023-07-02T13:00:55;24.20;1.00
6662;DHT22;3367;48.714;8.994;2023-07-02T13:03:24;24.20;1.00
6662;DHT22;3367;48.714;8.994;2023-07-02T13:05:58;24.20;1.00
6662;DHT22;3367;48.714;8.994;2023-07-02T13:08:25;24.20;1.00
6662;DHT22;3367;48.714;8.994;2023-07-02T13:11:00;24.20;1.00
6662;DHT22;3367;48.714;8.994;2023-07-02T13:13:32;24.40;1.00
6662;DHT22;3367;48.714;8.994;2023-07-02T13:16:07;24.50;1.00
6662;DHT22;3367;48.714;8.994;2023-07-02T13:18:34;24.20;1.00
6662;DHT22;3367;48.714;8.994;2023-07-02T13:21:14;24.20;1.00
6662;DHT22;3367;48.714;8.994;2023-07-02T13:23:41;24.30;1.00
6662;DHT22;3367;48.714;8.994;2023-07-02T13:26:07;24.40;1.00
6662;DHT22;3367;48.714;8.994;2023-07-02T13:28:34;24.50;1.00
6662;DHT22;3367;48.714;8.994;2023-07-02T13:31:07;24.40;1.00
6662;DHT22;3367;48.714;8.994;2023-07-02T13:33:38;24.30;1.00
6662;DHT22;3367;48.714;8.994;2023-07-02T13:36:05;24.40;1.00
6662;DHT22;3367;48.714;8.994;2023-07-02T13:38:42;24.30;1.00
6662;DHT22;3367;48.714;8.994;2023-07-02T13:41:09;24.40;1.00
6662;DHT22;3367;48.714;8.994;2023-07-02T13:43:38;24.40;1.00
6662;DHT22;3367;48.714;8.994;2023-07-02T13:46:05;24.40;1.00
6662;DHT22;3367;48.714;8.994;2023-07-02T13:48:31;24.50;1.00
6662;DHT22;3367;48.714;8.994;2023-07-02T13:50:58;24.50;1.00
6662;DHT22;3367;48.714;8.994;2023-07-02T13:54:00;24.50;1.00
6662;DHT22;3367;48.714;8.994;2023-07-02T13:56:27;24.60;1.00
6662;DHT22;3367;48.714;8.994;2023-07-02T13:59:02;24.50;1.00
6662;DHT22;3367;48.714;8.994;2023-07-02T14:01:29;24.40;1.00
6662;DHT22;3367;48.714;8.994;2023-07-02T14:03:59;24.60;1.00
6662;DHT22;3367;48.714;8.994;2023-07-02T14:06:28;24.50;1.00
6662;DHT22;3367;48.714;8.994;2023-07-02T14:08:58;24.20;1.00
6662;DHT22;3367;48.714;8.994;2023-07-02T14:11:28;24.10;1.00
6662;DHT22;3367;48.714;8.994;2023-07-02T14:13:55;23.90;1.00
6662;DHT22;3367;48.714;8.994;2023-07-02T14:16:29;23.80;1.00
6662;DHT22;3367;48.714;8.994;2023-07-02T14:19:02;23.90;1.00
6662;DHT22;3367;48.714;8.994;2023-07-02T14:21:29;23.90;1.00
6662;DHT22;3367;48.714;8.994;2023-07-02T14:23:58;24.10;1.00
6662;DHT22;3367;48.714;8.994;2023-07-02T14:26:25;24.20;1.00
6662;DHT22;3367;48.714;8.994;2023-07-02T14:28:58;24.20;1.00
6662;DHT22;3367;48.714;8.994;2023-07-02T14:31:29;24.20;1.00
6662;DHT22;3367;48.714;8.994;2023-07-02T14:33:59;24.00;1.00
6662;DHT22;3367;48.714;8.994;2023-07-02T14:36:26;23.90;1.00
6662;DHT22;3367;48.714;8.994;2023-07-02T14:38:53;24.10;1.00
6662;DHT22;3367;48.714;8.994;2023-07-02T14:41:20;24.30;1.00
6662;DHT22;3367;48.714;8.994;2023-07-02T14:43:46;24.50;1.00
6662;DHT22;3367;48.714;8.994;2023-07-02T14:46:20;24.60;1.00
6662;DHT22;3367;48.714;8.994;2023-07-02T14:48:49;24.60;1.00
6662;DHT22;3367;48.714;8.994;2023-07-02T14:51:19;24.50;1.00
6662;DHT22;3367;48.714;8.994;2023-07-02T14:53:45;24.60;1.00
6662;DHT22;3367;48.714;8.994;2023-07-02T14:56:12;24.50;1.00
6662;DHT22;3367;48.714;8.994;2023-07-02T14:58:42;24.70;1.00
6662;DHT22;3367;48.714;8.994;2023-07-02T15:01:08;24.50;1.00
6662;DHT22;3367;48.714;8.994;2023-07-02T15:03:38;24.30;1.00
6662;DHT22;3367;48.714;8.994;2023-07-02T15:06:11;24.40;1.00
6662;DHT22;3367;48.714;8.994;2023-07-02T15:08:42;24.40;1.00
6662;DHT22;3367;48.714;8.994;2023-07-02T15:11:09;24.60;1.00
6662;DHT22;3367;48.714;8.994;2023-07-02T15:13:45;24.60;1.00
6662;DHT22;3367;48.714;8.994;2023-07-02T15:16:12;24.50;1.00
6662;DHT22;3367;48.714;8.994;2023-07-02T15:18:39;24.60;1.00
6662;DHT22;3367;48.714;8.994;2023-07-02T15:21:07;24.70;1.00
6662;DHT22;3367;48.714;8.994;2023-07-02T15:23:40;24.60;1.00
6662;DHT22;3367;48.714;8.994;2023-07-02T15:26:07;24.60;1.00
6662;DHT22;3367;48.714;8.994;2023-07-02T15:28:40;24.70;1.00
6662;DHT22;3367;48.714;8.994;2023-07-02T15:31:25;24.80;1.00
6662;DHT22;3367;48.714;8.994;2023-07-02T15:33:55;24.60;1.00
6662;DHT22;3367;48.714;8.994;2023-07-02T15:36:26;24.50;1.00
6662;DHT22;3367;48.714;8.994;2023-07-02T15:38:57;24.30;1.00
6662;DHT22;3367;48.714;8.994;2023-07-02T15:41:24;24.30;1.00
6662;DHT22;3367;48.714;8.994;2023-07-02T15:43:51;24.20;1.00
6662;DHT22;3367;48.714;8.994;2023-07-02T15:46:23;24.20;1.00
6662;DHT22;3367;48.714;8.994;2023-07-02T15:48:50;24.30;1.00
6662;DHT22;3367;48.714;8.994;2023-07-02T15:51:17;24.50;1.00
6662;DHT22;3367;48.714;8.994;2023-07-02T15:53:45;24.40;1.00
6662;DHT22;3367;48.714;8.994;2023-07-02T15:56:18;24.20;1.00
6662;DHT22;3367;48.714;8.994;2023-07-02T15:58:44;24.10;1.00
6662;DHT22;3367;48.714;8.994;2023-07-02T16:01:16;23.90;1.00
6662;DHT22;3367;48.714;8.994;2023-07-02T16:03:46;23.70;1.00
6662;DHT22;3367;48.714;8.994;2023-07-02T16:06:25;23.60;1.00
6662;DHT22;3367;48.714;8.994;2023-07-02T16:09:01;23.70;1.00
6662;DHT22;3367;48.714;8.994;2023-07-02T16:11:28;23.90;1.00
6662;DHT22;3367;48.714;8.994;2023-07-02T16:14:07;24.00;1.00
6662;DHT22;3367;48.714;8.994;2023-07-02T16:16:38;23.90;1.00
6662;DHT22;3367;48.714;8.994;2023-07-02T16:19:06;23.90;1.00
6662;DHT22;3367;48.714;8.994;2023-07-02T16:21:36;24.00;1.00
6662;DHT22;3367;48.714;8.994;2023-07-02T16:24:19;24.00;1.00
6662;DHT22;3367;48.714;8.994;2023-07-02T16:26:46;24.00;1.00
6662;DHT22;3367;48.714;8.994;2023-07-02T16:29:16;23.90;1.00
6662;DHT22;3367;48.714;8.994;2023-07-02T16:31:48;23.90;1.00
6662;DHT22;3367;48.714;8.994;2023-07-02T16:34:15;23.90;1.00
6662;DHT22;3367;48.714;8.994;2023-07-02T16:36:42;23.90;1.00
6662;DHT22;3367;48.714;8.994;2023-07-02T16:39:17;23.80;1.00